Time;durP1;ratioP1;P1;durP2;ratioP2;P2;SDS_P1;SDS_P2;PMS_P1;PMS_P2;Temp;Humidity;BMP_temperature;BMP_pressure;BME280_temperature;BME280_humidity;BME280_pressure;Samples;Min_cycle;Max_cycle;Signal;HPM_P1;HPM_P2
2023/10/03 00:00:35;;;;;;;9.40;4.03;;;;;;;16.23;81.41;100573.41;4200034;28;20240;-66
2023/10/03 00:03:04;;;;;;;9.43;4.80;;;;;;;16.15;81.41;100571.59;4189094;28;22775;-66
2023/10/03 00:05:31;;;;;;;9.40;4.37;;;;;;;15.93;82.49;100568.66;4201133;28;21101;-65
2023/10/03 00:08:05;;;;;;;11.00;4.60;;;;;;;15.88;82.88;100575.69;4200730;28;20240;-68
2023/10/03 00:10:33;;;;;;;16.30;4.83;;;;;;;16.02;82.32;100574.94;4191729;28;20679;-64
2023/10/03 00:13:00;;;;;;;12.20;4.30;;;;;;;16.15;81.52;100569.72;4191880;28;20540;-66
2023/10/03 00:15:28;;;;;;;10.80;4.27;;;;;;;16.08;81.67;100567.91;4198566;28;20260;-65
2023/10/03 00:17:55;;;;;;;10.70;4.50;;;;;;;16.05;81.91;100563.63;4199800;28;21230;-66
2023/10/03 00:20:22;;;;;;;10.10;4.40;;;;;;;15.87;82.85;100560.34;4189060;28;26335;-65
2023/10/03 00:22:51;;;;;;;11.17;4.80;;;;;;;15.93;82.58;100562.34;4195151;28;20284;-67
2023/10/03 00:25:19;;;;;;;9.17;4.60;;;;;;;15.94;82.88;100561.31;4198652;28;20276;-65
2023/10/03 00:27:46;;;;;;;12.00;4.90;;;;;;;15.88;82.86;100557.41;4193449;28;20245;-63
2023/10/03 00:30:16;;;;;;;8.73;4.70;;;;;;;15.82;83.40;100555.38;4194006;28;20244;-65
2023/10/03 00:32:43;;;;;;;14.67;5.53;;;;;;;15.86;83.20;100558.63;4199402;28;20233;-65
2023/10/03 00:35:11;;;;;;;12.67;5.17;;;;;;;15.73;83.95;100560.03;4192262;28;20388;-66
2023/10/03 00:37:44;;;;;;;13.83;5.27;;;;;;;15.73;83.94;100559.19;4186199;28;20233;-66
2023/10/03 00:40:17;;;;;;;11.47;5.40;;;;;;;15.64;84.75;100563.84;4191532;28;20228;-65
2023/10/03 00:42:46;;;;;;;14.60;5.70;;;;;;;15.64;84.95;100561.09;4194225;28;20240;-67
2023/10/03 00:45:21;;;;;;;13.07;5.40;;;;;;;15.76;84.27;100562.41;4194847;28;20233;-65
2023/10/03 00:47:48;;;;;;;12.37;5.57;;;;;;;15.62;85.10;100557.69;4210476;28;21113;-65
2023/10/03 00:50:19;;;;;;;11.27;5.10;;;;;;;15.64;85.12;100561.09;4204560;28;20466;-65
2023/10/03 00:53:00;;;;;;;11.93;5.70;;;;;;;15.60;85.35;100557.00;4190690;28;20374;-64
2023/10/03 00:55:32;;;;;;;10.77;5.20;;;;;;;15.58;85.63;100556.34;4199742;28;21132;-64
2023/10/03 00:58:07;;;;;;;15.10;6.20;;;;;;;15.55;85.66;100551.25;4219732;28;20319;-65
2023/10/03 01:00:41;;;;;;;12.37;5.63;;;;;;;15.49;85.79;100550.06;4203671;28;20260;-65
2023/10/03 01:03:28;;;;;;;12.27;5.83;;;;;;;15.60;85.89;100551.56;4198272;28;20233;-63
2023/10/03 01:06:04;;;;;;;13.27;5.63;;;;;;;15.56;85.75;100536.56;4208849;28;22326;-66
2023/10/03 01:08:39;;;;;;;11.07;5.40;;;;;;;15.62;85.70;100538.59;4196906;28;21547;-67
2023/10/03 01:11:15;;;;;;;11.67;5.30;;;;;;;15.61;85.47;100539.63;4194402;28;21684;-65
2023/10/03 01:13:48;;;;;;;15.37;5.50;;;;;;;15.65;85.20;100538.25;4200250;28;20311;-68
2023/10/03 01:16:36;;;;;;;13.57;5.43;;;;;;;15.52;86.03;100533.34;4196724;28;20409;-65
2023/10/03 01:21:52;;;;;;;13.80;6.00;;;;;;;15.46;86.36;100521.28;4192552;28;20237;-65
2023/10/03 01:24:24;;;;;;;15.53;5.53;;;;;;;15.46;86.57;100515.81;4191950;28;20237;-66
2023/10/03 01:26:53;;;;;;;11.60;5.50;;;;;;;15.54;85.92;100520.41;4208126;28;23039;-65
2023/10/03 01:29:20;;;;;;;13.90;6.17;;;;;;;15.50;86.18;100517.19;4196093;28;20443;-66
2023/10/03 01:31:51;;;;;;;15.60;5.57;;;;;;;15.64;85.68;100514.72;4202693;28;20327;-65
2023/10/03 01:34:18;;;;;;;13.23;5.63;;;;;;;15.44;86.53;100523.34;4205562;28;22939;-67
2023/10/03 01:36:48;;;;;;;14.67;5.53;;;;;;;15.56;86.05;100512.84;4198298;28;21136;-65
2023/10/03 01:39:15;;;;;;;15.27;5.70;;;;;;;15.64;85.69;100521.00;4198933;28;23441;-67
2023/10/03 01:41:42;;;;;;;12.97;5.50;;;;;;;15.51;86.31;100529.78;4182176;28;20237;-65
2023/10/03 01:44:09;;;;;;;12.13;5.37;;;;;;;15.38;86.99;100529.47;4196420;28;21118;-66
2023/10/03 01:46:38;;;;;;;18.27;6.33;;;;;;;15.33;87.04;100526.44;4207442;28;20229;-65
2023/10/03 01:49:05;;;;;;;12.50;5.97;;;;;;;15.55;86.18;100524.81;4189511;28;21072;-67
2023/10/03 01:51:32;;;;;;;11.80;5.70;;;;;;;15.49;86.44;100529.13;4193831;28;20642;-66
2023/10/03 01:53:59;;;;;;;12.90;6.33;;;;;;;15.41;86.90;100539.22;4195658;28;20240;-65
2023/10/03 01:56:26;;;;;;;13.30;6.40;;;;;;;15.50;86.26;100529.94;4195988;28;20978;-65
2023/10/03 01:58:54;;;;;;;11.90;6.37;;;;;;;15.51;86.00;100529.78;4192039;28;20233;-67
2023/10/03 02:01:23;;;;;;;13.20;5.90;;;;;;;15.58;85.80;100531.81;4202140;28;20690;-66
2023/10/03 02:03:50;;;;;;;15.20;6.83;;;;;;;15.52;86.01;100522.44;4188861;28;20243;-66
2023/10/03 02:06:17;;;;;;;12.07;6.33;;;;;;;15.39;86.65;100519.44;4196781;28;20664;-64
2023/10/03 02:08:43;;;;;;;14.47;6.60;;;;;;;15.55;86.02;100523.97;4201572;28;20296;-67
2023/10/03 02:11:12;;;;;;;13.47;6.23;;;;;;;15.51;86.06;100518.88;4197637;28;21743;-65
2023/10/03 02:13:40;;;;;;;14.27;6.83;;;;;;;15.44;86.38;100509.72;4191234;28;20603;-66
2023/10/03 02:16:10;;;;;;;15.67;6.40;;;;;;;15.51;86.04;100512.56;4194661;28;20889;-67
2023/10/03 02:18:36;;;;;;;18.77;6.40;;;;;;;15.44;86.37;100508.84;4209882;28;20228;-64
2023/10/03 02:21:04;;;;;;;13.80;6.70;;;;;;;15.47;86.22;100509.34;4194782;28;20407;-66
2023/10/03 02:23:32;;;;;;;14.03;6.37;;;;;;;15.39;86.49;100503.91;4201117;28;20509;-66
2023/10/03 02:26:10;;;;;;;17.53;6.60;;;;;;;15.30;86.78;100494.94;4200305;28;20777;-65
2023/10/03 02:28:38;;;;;;;15.53;6.70;;;;;;;15.46;86.08;100485.81;4197676;28;20241;-64
2023/10/03 02:31:07;;;;;;;18.33;6.50;;;;;;;15.37;86.51;100487.72;4199220;28;20389;-66
2023/10/03 02:33:42;;;;;;;14.10;6.63;;;;;;;15.28;86.90;100491.50;4196489;28;20355;-65
2023/10/03 02:36:10;;;;;;;22.57;7.63;;;;;;;15.37;86.77;100486.88;4203782;28;20313;-65
2023/10/03 02:38:37;;;;;;;15.27;6.93;;;;;;;15.27;87.21;100488.97;4203117;28;20232;-67
2023/10/03 02:41:10;;;;;;;16.20;6.63;;;;;;;15.38;86.54;100477.66;4201199;28;20225;-66
2023/10/03 02:43:43;;;;;;;14.73;6.77;;;;;;;15.46;85.98;100474.06;4207790;28;22072;-65
2023/10/03 02:46:13;;;;;;;16.07;6.63;;;;;;;15.48;85.94;100464.66;4210166;28;20303;-65
2023/10/03 02:48:41;;;;;;;13.80;6.23;;;;;;;15.30;86.78;100467.66;4205831;28;20237;-66
2023/10/03 02:51:09;;;;;;;13.33;6.40;;;;;;;15.30;86.71;100464.94;4202068;28;20242;-66
2023/10/03 02:53:36;;;;;;;16.90;7.33;;;;;;;15.30;86.72;100459.47;4206517;28;20233;-66
2023/10/03 02:56:04;;;;;;;16.60;6.87;;;;;;;15.29;86.91;100455.03;4195614;28;20618;-66
2023/10/03 02:58:30;;;;;;;16.97;7.17;;;;;;;15.33;86.75;100458.25;4199403;28;21529;-66
2023/10/03 03:00:57;;;;;;;17.60;7.47;;;;;;;15.32;86.58;100449.25;4194603;28;20545;-65
2023/10/03 03:03:32;;;;;;;14.83;6.83;;;;;;;15.31;86.74;100452.13;4193588;28;25696;-68
2023/10/03 03:06:03;;;;;;;14.27;7.37;;;;;;;15.28;86.30;100449.78;4191644;28;21136;-66
2023/10/03 03:08:29;;;;;;;15.17;6.03;;;;;;;15.25;86.98;100442.81;4202071;28;20253;-65
2023/10/03 03:11:00;;;;;;;15.23;6.80;;;;;;;15.26;86.77;100435.47;4196138;28;23714;-67
2023/10/03 03:13:33;;;;;;;15.13;6.53;;;;;;;15.15;87.22;100433.97;4201088;28;20261;-67
2023/10/03 03:16:00;;;;;;;14.40;6.87;;;;;;;15.16;87.38;100430.22;4197790;28;25474;-66
2023/10/03 03:18:42;;;;;;;14.83;6.67;;;;;;;15.07;87.62;100431.28;4193615;28;20240;-67
2023/10/03 03:21:15;;;;;;;17.70;7.43;;;;;;;14.93;88.28;100417.38;4198458;28;20241;-66
2023/10/03 03:23:55;;;;;;;18.63;7.17;;;;;;;14.94;88.18;100432.72;4201468;28;20252;-66
2023/10/03 03:26:29;;;;;;;15.17;7.57;;;;;;;14.98;87.95;100425.88;4196220;28;20340;-66
2023/10/03 03:28:55;;;;;;;13.80;6.80;;;;;;;14.86;88.62;100422.66;4196242;28;20233;-66
2023/10/03 03:31:22;;;;;;;13.90;6.63;;;;;;;14.57;89.99;100415.91;4204508;28;20351;-66
2023/10/03 03:33:51;;;;;;;19.33;6.97;;;;;;;14.82;89.08;100415.03;4202442;28;20232;-66
2023/10/03 03:36:21;;;;;;;16.03;7.50;;;;;;;14.77;89.24;100401.91;4192585;28;28859;-67
2023/10/03 03:38:51;;;;;;;13.87;7.40;;;;;;;14.74;89.45;100399.56;4201562;28;20249;-67
2023/10/03 03:41:19;;;;;;;15.57;7.37;;;;;;;14.64;89.90;100407.91;4203844;28;20237;-66
2023/10/03 03:43:48;;;;;;;12.33;7.10;;;;;;;14.57;90.32;100401.47;4206160;28;20453;-65
2023/10/03 03:46:15;;;;;;;15.07;7.67;;;;;;;14.52;90.57;100398.41;4196076;28;20258;-67
2023/10/03 03:48:42;;;;;;;22.03;9.30;;;;;;;14.54;90.62;100401.81;4202960;28;20263;-66
2023/10/03 03:51:12;;;;;;;19.50;8.03;;;;;;;14.63;90.28;100392.59;4196284;28;20377;-64
2023/10/03 03:53:39;;;;;;;16.80;8.20;;;;;;;14.55;90.47;100387.16;4193403;28;20379;-65
2023/10/03 03:56:07;;;;;;;20.10;8.70;;;;;;;14.48;90.78;100395.16;4196170;28;21267;-66
2023/10/03 03:58:36;;;;;;;16.77;8.40;;;;;;;14.42;91.20;100382.25;4201694;28;21712;-66
2023/10/03 04:01:13;;;;;;;15.67;8.60;;;;;;;14.38;91.21;100383.63;4192129;28;20422;-66
2023/10/03 04:03:43;;;;;;;16.10;8.73;;;;;;;14.36;91.63;100385.69;4204106;28;20664;-65
2023/10/03 04:06:10;;;;;;;17.13;8.30;;;;;;;14.33;91.81;100388.72;4198516;28;22821;-65
2023/10/03 04:08:38;;;;;;;19.17;8.77;;;;;;;14.33;91.96;100375.97;4204635;28;20245;-68
2023/10/03 04:11:14;;;;;;;15.23;8.33;;;;;;;14.30;92.10;100378.22;4207704;28;20258;-65
2023/10/03 04:13:49;;;;;;;18.13;8.90;;;;;;;14.24;92.20;100382.47;4189974;28;21291;-66
2023/10/03 04:16:17;;;;;;;18.47;8.93;;;;;;;14.18;92.20;100384.00;4193465;28;20244;-65
2023/10/03 04:18:44;;;;;;;19.10;9.20;;;;;;;14.14;92.68;100381.78;4194724;28;20593;-66
2023/10/03 04:21:10;;;;;;;16.83;9.83;;;;;;;14.23;92.32;100372.59;4201438;28;20295;-66
2023/10/03 04:23:39;;;;;;;16.90;9.00;;;;;;;14.23;92.40;100370.75;4200827;28;20241;-68
2023/10/03 04:26:07;;;;;;;20.00;8.97;;;;;;;14.24;92.05;100374.28;4190350;28;20314;-65
2023/10/03 04:28:34;;;;;;;19.23;9.30;;;;;;;14.12;92.45;100362.06;4195177;28;20241;-67
2023/10/03 04:31:00;;;;;;;25.50;9.67;;;;;;;14.16;92.63;100361.53;4209228;28;20348;-67
2023/10/03 04:33:27;;;;;;;18.70;9.00;;;;;;;14.06;93.19;100366.31;4193364;28;21755;-66
2023/10/03 04:35:56;;;;;;;17.13;8.87;;;;;;;14.12;92.74;100365.63;4190338;28;20271;-66
2023/10/03 04:38:23;;;;;;;19.80;9.70;;;;;;;14.15;92.40;100364.44;4201832;28;21138;-68
2023/10/03 04:40:49;;;;;;;19.43;9.50;;;;;;;14.15;92.60;100364.44;4196339;28;22223;-67
2023/10/03 04:43:17;;;;;;;18.70;9.20;;;;;;;14.15;92.38;100356.25;4195894;28;23052;-68
2023/10/03 04:45:47;;;;;;;18.77;8.80;;;;;;;14.14;92.47;100352.72;4190407;28;20236;-68
2023/10/03 04:48:13;;;;;;;21.70;9.07;;;;;;;14.08;93.05;100347.97;4187894;28;20467;-71
2023/10/03 04:50:42;;;;;;;19.87;8.87;;;;;;;14.08;92.63;100342.53;4203699;28;20239;-70
2023/10/03 04:53:14;;;;;;;16.80;8.90;;;;;;;14.02;93.38;100337.75;4203314;28;20427;-68
2023/10/03 04:55:45;;;;;;;21.33;9.70;;;;;;;14.04;93.17;100342.00;4202969;28;20243;-69
2023/10/03 04:58:12;;;;;;;26.17;9.43;;;;;;;14.12;92.64;100351.19;4216412;28;20238;-69
2023/10/03 05:00:39;;;;;;;20.40;9.13;;;;;;;14.14;92.19;100341.81;4210717;28;20551;-73
2023/10/03 05:03:09;;;;;;;21.17;9.60;;;;;;;14.05;92.84;100345.56;4189851;28;20485;-76
2023/10/03 05:05:37;;;;;;;19.20;9.13;;;;;;;14.00;93.12;100337.09;4194433;28;20616;-72
2023/10/03 05:08:05;;;;;;;18.37;9.40;;;;;;;14.08;92.84;100331.63;4210952;28;20311;-70
2023/10/03 05:10:36;;;;;;;17.97;8.63;;;;;;;14.18;92.23;100320.53;4221841;28;20233;-69
2023/10/03 05:13:05;;;;;;;19.10;8.57;;;;;;;14.15;92.44;100335.34;4192321;28;20300;-73
2023/10/03 05:15:32;;;;;;;19.60;9.20;;;;;;;14.16;92.37;100317.13;4198507;28;20229;-68
2023/10/03 05:18:00;;;;;;;23.53;9.20;;;;;;;14.19;92.21;100327.69;4210071;28;20450;-72
2023/10/03 05:20:40;;;;;;;16.47;8.30;;;;;;;14.22;91.85;100325.47;4207349;28;20269;-72
2023/10/03 05:23:07;;;;;;;20.33;8.40;;;;;;;14.20;91.98;100322.06;4189461;28;20319;-72
2023/10/03 05:25:42;;;;;;;25.03;8.90;;;;;;;14.22;91.94;100320.03;4203960;28;20275;-72
2023/10/03 05:28:11;;;;;;;24.10;9.80;;;;;;;14.20;92.08;100321.22;4210601;28;20331;-69
2023/10/03 05:30:40;;;;;;;20.93;8.53;;;;;;;14.17;91.90;100318.84;4201061;28;21936;-69
2023/10/03 05:33:08;;;;;;;24.47;8.57;;;;;;;14.23;92.06;100320.88;4215134;28;20305;-69
2023/10/03 05:35:35;;;;;;;22.60;9.40;;;;;;;14.27;91.72;100324.94;4200675;28;22864;-70
2023/10/03 05:38:12;;;;;;;21.87;9.33;;;;;;;14.26;91.72;100318.63;4188830;28;20354;-71
2023/10/03 05:40:39;;;;;;;19.67;9.60;;;;;;;14.37;91.05;100322.03;4206339;28;20221;-69
2023/10/03 05:43:07;;;;;;;18.70;8.53;;;;;;;14.57;90.19;100323.31;4200733;28;20350;-72
2023/10/03 05:45:35;;;;;;;18.97;8.43;;;;;;;14.64;89.30;100318.00;4192245;28;20411;-70
2023/10/03 05:48:03;;;;;;;24.70;8.77;;;;;;;14.66;89.26;100309.69;4211921;28;20267;-73
2023/10/03 05:50:32;;;;;;;18.67;8.63;;;;;;;14.75;88.56;100314.06;4196860;28;20248;-74
2023/10/03 05:53:00;;;;;;;17.27;8.53;;;;;;;14.60;89.16;100305.75;4220931;28;22651;-73
2023/10/03 05:55:27;;;;;;;22.33;7.90;;;;;;;14.67;89.36;100309.50;4200781;28;20671;-70
2023/10/03 05:57:55;;;;;;;18.73;7.80;;;;;;;14.83;88.07;100305.84;4201878;28;20248;-68
2023/10/03 06:00:22;;;;;;;16.23;8.00;;;;;;;14.92;87.67;100308.53;4204179;28;25328;-72
2023/10/03 06:02:50;;;;;;;13.53;8.17;;;;;;;14.94;87.53;100307.31;4197283;28;21647;-71
2023/10/03 06:05:17;;;;;;;17.43;8.00;;;;;;;15.01;87.30;100312.88;4188126;28;20245;-70
2023/10/03 06:07:44;;;;;;;20.30;7.90;;;;;;;15.22;86.15;100312.25;4208644;28;20858;-70
2023/10/03 06:10:13;;;;;;;26.10;8.37;;;;;;;15.21;85.97;100305.09;4196383;28;20827;-69
2023/10/03 06:12:40;;;;;;;17.73;7.73;;;;;;;15.39;85.29;100312.13;4218398;28;20237;-68
2023/10/03 06:15:07;;;;;;;14.33;7.87;;;;;;;15.45;84.72;100303.22;4208879;28;20321;-71
2023/10/03 06:17:35;;;;;;;18.57;8.00;;;;;;;15.58;84.13;100305.34;4217694;28;20612;-70
2023/10/03 06:20:03;;;;;;;14.80;7.20;;;;;;;15.57;83.88;100301.75;4205567;28;25407;-69
2023/10/03 06:22:32;;;;;;;17.37;7.60;;;;;;;15.63;83.96;100311.09;4212132;28;21321;-70
2023/10/03 06:24:59;;;;;;;19.00;7.77;;;;;;;15.81;82.95;100305.28;4228022;28;21206;-68
2023/10/03 06:27:30;;;;;;;16.47;6.87;;;;;;;15.94;82.31;100291.03;4202959;28;20671;-68
2023/10/03 06:29:57;;;;;;;15.70;7.40;;;;;;;16.02;81.55;100290.97;4187111;28;20239;-70
2023/10/03 06:32:24;;;;;;;16.37;7.13;;;;;;;15.92;81.65;100282.19;4176711;28;20233;-69
2023/10/03 06:34:50;;;;;;;19.47;7.60;;;;;;;16.03;81.42;100283.59;4200722;28;20353;-70
2023/10/03 06:37:17;;;;;;;18.27;7.07;;;;;;;16.20;80.45;100279.66;4196636;28;21988;-69
2023/10/03 06:39:44;;;;;;;16.90;6.90;;;;;;;16.28;79.92;100273.25;4205247;28;20223;-69
2023/10/03 06:42:11;;;;;;;21.13;7.20;;;;;;;16.28;79.75;100282.31;4220503;28;20296;-68
2023/10/03 06:44:37;;;;;;;18.60;7.23;;;;;;;16.31;79.75;100292.00;4188083;28;20304;-70
2023/10/03 06:47:04;;;;;;;17.83;6.60;;;;;;;16.53;78.56;100278.41;4207549;28;20335;-69
2023/10/03 06:49:31;;;;;;;16.03;7.50;;;;;;;16.64;78.20;100281.50;4196281;28;25575;-68
2023/10/03 06:52:00;;;;;;;14.97;6.17;;;;;;;16.82;77.24;100279.38;4197231;28;20355;-70
2023/10/03 06:54:27;;;;;;;16.57;6.97;;;;;;;16.95;76.77;100279.59;4197229;28;20240;-69
2023/10/03 06:56:55;;;;;;;18.33;7.00;;;;;;;17.01;76.36;100286.16;4200013;28;20631;-71
2023/10/03 06:59:22;;;;;;;18.97;6.97;;;;;;;17.03;75.97;100279.44;4198619;28;20232;-68
2023/10/03 07:01:48;;;;;;;18.57;6.17;;;;;;;17.17;75.47;100282.34;4226891;28;20344;-69
2023/10/03 07:04:15;;;;;;;15.27;7.03;;;;;;;17.25;75.58;100283.06;4204780;28;20930;-69
2023/10/03 07:06:43;;;;;;;16.73;7.00;;;;;;;17.45;74.60;100273.34;4209246;28;20700;-70
2023/10/03 07:09:11;;;;;;;20.83;6.93;;;;;;;17.51;74.06;100265.19;4220720;28;20293;-70
2023/10/03 07:11:38;;;;;;;14.13;6.73;;;;;;;17.80;73.15;100270.66;4214991;28;21695;-74
2023/10/03 07:14:05;;;;;;;15.90;5.77;;;;;;;18.08;71.98;100273.44;4210082;28;20244;-72
2023/10/03 07:16:38;;;;;;;13.83;6.43;;;;;;;18.63;69.90;100264.44;4231066;28;20244;-75
2023/10/03 07:19:05;;;;;;;15.47;6.00;;;;;;;19.72;66.47;100278.19;4243009;28;25639;-77
2023/10/03 07:21:36;;;;;;;19.77;6.03;;;;;;;21.44;59.13;100267.84;4201867;28;25304;-73
2023/10/03 07:24:03;;;;;;;15.03;6.07;;;;;;;22.32;55.85;100272.31;4228980;28;20245;-72
2023/10/03 07:26:30;;;;;;;17.27;5.67;;;;;;;23.24;52.83;100267.78;4236333;28;21255;-73
2023/10/03 07:29:02;;;;;;;15.77;6.00;;;;;;;24.16;50.48;100268.38;4227598;28;20240;-71
2023/10/03 07:31:33;;;;;;;15.00;5.30;;;;;;;26.36;45.13;100273.75;4204944;28;20244;-66
2023/10/03 07:34:00;;;;;;;17.30;5.70;;;;;;;27.44;42.19;100265.84;4213814;28;24748;-69
2023/10/03 07:36:27;;;;;;;14.98;5.18;;;;;;;28.15;40.74;100267.53;4218935;28;20299;-67
2023/10/03 07:38:54;;;;;;;15.20;5.50;;;;;;;27.99;40.25;100258.19;4217338;28;20237;-67
2023/10/03 07:41:21;;;;;;;13.65;4.90;;;;;;;27.68;40.97;100261.59;4220033;28;20241;-66
2023/10/03 07:43:49;;;;;;;11.80;5.00;;;;;;;26.97;42.28;100257.03;4204112;28;21132;-68
2023/10/03 07:46:23;;;;;;;13.45;5.47;;;;;;;28.09;40.02;100254.69;4206462;28;20519;-69
2023/10/03 07:48:55;;;;;;;16.60;5.47;;;;;;;28.52;38.92;100249.03;4227747;28;21272;-65
2023/10/03 07:51:26;;;;;;;15.05;5.38;;;;;;;29.43;37.51;100248.72;4227480;28;22298;-68
2023/10/03 07:53:58;;;;;;;12.25;5.10;;;;;;;30.47;35.80;100251.09;4227532;28;21041;-69
2023/10/03 07:56:33;;;;;;;17.83;6.07;;;;;;;30.47;35.28;100253.88;4236989;28;21513;-69
2023/10/03 07:59:01;;;;;;;12.07;5.30;;;;;;;30.56;35.31;100237.38;4232370;28;23514;-67
2023/10/03 08:01:32;;;;;;;12.45;5.38;;;;;;;30.94;34.29;100248.09;4227582;28;20303;-68
2023/10/03 08:04:18;;;;;;;14.32;5.07;;;;;;;31.54;33.42;100247.94;4223973;28;21643;-70
2023/10/03 08:06:46;;;;;;;10.38;5.15;;;;;;;31.66;32.69;100239.19;4240149;28;20852;-66
2023/10/03 08:09:16;;;;;;;14.45;5.20;;;;;;;28.52;37.59;100243.47;4241235;28;20237;-65
2023/10/03 08:11:46;;;;;;;14.10;5.22;;;;;;;29.75;35.94;100242.03;4226469;28;20925;-67
2023/10/03 08:14:17;;;;;;;12.50;5.40;;;;;;;30.97;34.24;100239.97;4206873;28;20574;-66
2023/10/03 08:16:46;;;;;;;14.52;5.38;;;;;;;30.65;33.90;100240.44;4203391;28;20268;-66
2023/10/03 08:19:24;;;;;;;15.93;4.82;;;;;;;29.71;35.38;100236.19;4214767;28;20244;-66
2023/10/03 08:21:53;;;;;;;13.35;5.20;;;;;;;28.45;38.01;100232.59;4228778;28;21173;-68
2023/10/03 08:24:24;;;;;;;13.17;5.27;;;;;;;29.67;36.10;100235.91;4214377;28;20523;-68
2023/10/03 08:26:52;;;;;;;13.95;4.88;;;;;;;30.20;34.87;100220.75;4216664;28;20236;-66
2023/10/03 08:29:23;;;;;;;13.35;4.75;;;;;;;30.07;35.39;100216.59;4226645;28;22295;-48
2023/10/03 08:31:58;;;;;;;17.38;5.13;;;;;;;30.64;34.48;100214.44;4202055;28;20687;-72
2023/10/03 08:34:30;;;;;;;12.70;5.50;;;;;;;30.21;35.34;100218.81;4209897;28;22044;-68
2023/10/03 08:37:01;;;;;;;9.35;4.80;;;;;;;29.91;35.76;100210.22;4233677;28;20327;-73
2023/10/03 08:39:32;;;;;;;15.48;5.40;;;;;;;28.57;37.72;100212.88;4208401;28;20234;-70
2023/10/03 08:42:12;;;;;;;15.82;5.13;;;;;;;26.96;40.80;100202.59;4227631;28;21143;-74
2023/10/03 08:44:49;;;;;;;9.43;5.30;;;;;;;26.15;42.95;100206.91;4225904;28;20229;-73
2023/10/03 08:47:31;;;;;;;21.77;5.78;;;;;;;26.11;43.39;100197.41;4242676;28;20618;-72
2023/10/03 08:50:29;;;;;;;28.50;6.15;;;;;;;25.49;45.01;100193.72;4200818;28;20687;-73
2023/10/03 08:52:56;;;;;;;13.67;5.60;;;;;;;25.57;45.00;100186.91;4211005;28;21119;-70
2023/10/03 08:55:26;;;;;;;18.13;5.25;;;;;;;25.04;45.80;100180.75;4198463;28;22272;-44
2023/10/03 08:58:00;;;;;;;12.50;5.27;;;;;;;24.60;47.50;100173.81;4200361;28;20233;-70
2023/10/03 09:00:28;;;;;;;17.43;5.97;;;;;;;24.68;47.36;100176.22;4188005;28;21107;-71
2023/10/03 09:03:08;;;;;;;11.93;5.20;;;;;;;24.51;47.60;100175.31;4237349;28;20444;-68
2023/10/03 09:05:40;;;;;;;15.43;5.20;;;;;;;24.69;47.37;100171.56;4177556;28;20229;-70
2023/10/03 09:08:08;;;;;;;14.73;5.45;;;;;;;24.32;48.10;100169.16;4197658;28;20562;-72
2023/10/03 09:10:50;;;;;;;16.50;5.57;;;;;;;24.12;48.83;100159.31;4217325;28;20237;-70
2023/10/03 09:13:23;;;;;;;10.50;4.97;;;;;;;24.00;48.70;100167.63;4208150;28;20939;-70
2023/10/03 09:16:02;;;;;;;14.63;5.23;;;;;;;23.68;50.11;100159.72;4195294;28;21098;-70
2023/10/03 09:18:42;;;;;;;13.87;4.97;;;;;;;24.26;48.74;100153.50;4187429;28;22049;-67
2023/10/03 09:21:23;;;;;;;14.30;5.43;;;;;;;24.38;48.76;100157.09;4202780;28;20564;-69
2023/10/03 09:24:09;;;;;;;15.00;5.33;;;;;;;24.14;49.09;100145.22;4212559;28;20278;-70
2023/10/03 09:26:47;;;;;;;14.40;5.03;;;;;;;23.96;49.13;100149.88;4207248;28;20234;-67
2023/10/03 09:29:29;;;;;;;15.53;5.70;;;;;;;23.86;50.17;100141.31;4197057;28;20536;-68
2023/10/03 09:32:24;;;;;;;14.37;5.30;;;;;;;23.50;50.55;100126.69;4229599;28;21102;-53
2023/10/03 09:35:09;;;;;;;16.73;6.17;;;;;;;23.13;51.78;100141.53;4208574;28;20271;-69
2023/10/03 09:37:36;;;;;;;10.73;5.17;;;;;;;23.41;51.05;100138.09;4213880;28;21754;-68
2023/10/03 09:40:16;;;;;;;10.43;5.10;;;;;;;23.45;51.62;100132.94;4198885;28;22783;-70
2023/10/03 09:42:51;;;;;;;18.47;5.60;;;;;;;23.57;51.55;100130.19;4203337;28;20238;-68
2023/10/03 09:45:24;;;;;;;11.23;5.07;;;;;;;23.46;51.51;100118.06;4217332;28;20250;-69
2023/10/03 09:47:58;;;;;;;16.97;5.93;;;;;;;23.45;51.54;100124.66;4202575;28;20309;-67
2023/10/03 09:50:32;;;;;;;13.77;5.73;;;;;;;23.44;51.78;100125.72;4198158;28;20348;-69
2023/10/03 09:53:01;;;;;;;15.13;5.77;;;;;;;23.33;52.02;100124.66;4189751;28;20284;-69
2023/10/03 09:55:41;;;;;;;16.33;5.90;;;;;;;23.31;52.14;100124.03;4196389;28;20916;-68
2023/10/03 09:58:08;;;;;;;20.00;5.83;;;;;;;23.44;51.42;100120.22;4194807;28;20232;-66
2023/10/03 10:00:54;;;;;;;17.13;5.53;;;;;;;23.40;51.80;100117.09;4201033;28;21064;-67
2023/10/03 10:03:26;;;;;;;19.17;5.37;;;;;;;23.26;51.87;100112.88;4204778;28;20234;-66
2023/10/03 10:06:12;;;;;;;10.73;5.47;;;;;;;23.24;52.25;100115.03;4201775;28;20312;-67
2023/10/03 10:08:58;;;;;;;12.87;5.77;;;;;;;23.46;51.21;100112.53;4213361;28;23678;-67
2023/10/03 10:11:30;;;;;;;18.90;5.60;;;;;;;23.39;51.87;100101.59;4216975;28;20253;-71
2023/10/03 10:14:11;;;;;;;17.20;6.37;;;;;;;23.39;52.12;100104.34;4198262;28;25351;-70
2023/10/03 10:17:06;;;;;;;17.07;5.93;;;;;;;23.58;51.59;100099.53;4201630;28;20240;-66
2023/10/03 10:20:07;;;;;;;21.10;6.30;;;;;;;23.66;51.08;100090.03;4210876;28;20237;-66
2023/10/03 10:23:04;;;;;;;25.57;6.57;;;;;;;23.70;51.66;100084.88;4218227;28;20301;-68
2023/10/03 10:25:42;;;;;;;22.00;6.47;;;;;;;23.89;50.63;100075.31;4198799;28;20566;-69
2023/10/03 10:28:31;;;;;;;20.43;7.37;;;;;;;23.80;50.50;100079.53;4205517;28;21084;-67
2023/10/03 10:31:24;;;;;;;19.13;6.17;;;;;;;23.87;50.82;100065.59;4200132;28;26305;-67
2023/10/03 10:34:20;;;;;;;22.30;6.27;;;;;;;24.01;50.34;100063.44;4209459;28;20373;-69
2023/10/03 10:37:04;;;;;;;21.27;7.03;;;;;;;23.98;50.10;100067.50;4200176;28;22514;-67
2023/10/03 10:39:56;;;;;;;17.10;5.67;;;;;;;23.97;50.29;100053.94;4209677;28;20233;-68
2023/10/03 10:42:29;;;;;;;17.77;5.93;;;;;;;24.10;49.22;100058.34;4217677;28;20373;-68
2023/10/03 10:45:13;;;;;;;17.77;6.30;;;;;;;24.11;48.95;100041.50;4193752;28;20242;-68
2023/10/03 10:47:50;;;;;;;19.23;5.77;;;;;;;24.33;48.70;100047.16;4202897;28;20234;-65
2023/10/03 10:50:21;;;;;;;17.20;6.20;;;;;;;24.55;47.66;100048.38;4196753;28;20374;-66
2023/10/03 10:53:02;;;;;;;14.67;6.17;;;;;;;24.45;47.91;100047.09;4216556;28;20354;-66
2023/10/03 10:55:29;;;;;;;17.73;6.60;;;;;;;24.61;47.87;100050.16;4196887;28;20248;-68
2023/10/03 10:58:17;;;;;;;19.23;6.40;;;;;;;24.68;47.63;100037.84;4203386;28;20883;-69
2023/10/03 11:00:44;;;;;;;17.77;5.50;;;;;;;24.70;47.98;100020.97;4220321;28;20237;-67
2023/10/03 11:03:11;;;;;;;17.43;5.70;;;;;;;24.77;48.10;100018.91;4222186;28;22009;-68
2023/10/03 11:05:45;;;;;;;18.70;6.37;;;;;;;24.80;47.29;100012.84;4197851;28;20436;-66
2023/10/03 11:08:13;;;;;;;19.23;6.37;;;;;;;24.77;47.57;100009.75;4220007;28;20323;-70
2023/10/03 11:10:52;;;;;;;18.97;5.77;;;;;;;24.92;46.88;100018.28;4212591;28;21230;-67
2023/10/03 11:13:23;;;;;;;22.97;5.90;;;;;;;24.92;46.96;100014.69;4203141;28;20265;-67
2023/10/03 11:15:52;;;;;;;14.07;5.30;;;;;;;24.89;46.58;99995.81;4205873;28;20652;-69
2023/10/03 11:18:30;;;;;;;19.03;5.47;;;;;;;24.79;47.23;99990.97;4206832;28;20399;-67
2023/10/03 11:20:59;;;;;;;13.85;4.93;;;;;;;24.62;47.67;99988.19;4205287;28;20256;-67
2023/10/03 11:23:26;;;;;;;20.33;5.78;;;;;;;24.45;48.17;99982.63;4191574;28;21741;-68
2023/10/03 11:25:58;;;;;;;15.32;5.22;;;;;;;24.42;48.40;99975.66;4205267;28;21658;-65
2023/10/03 11:28:29;;;;;;;21.27;6.03;;;;;;;24.65;47.76;99977.44;4233907;28;20312;-66
2023/10/03 11:31:01;;;;;;;15.37;5.57;;;;;;;24.94;46.93;99982.03;4206581;28;20312;-66
2023/10/03 11:33:29;;;;;;;12.50;5.60;;;;;;;25.03;46.80;99974.16;4202558;28;20597;-69
2023/10/03 11:35:56;;;;;;;15.47;5.30;;;;;;;25.30;46.32;99971.47;4200359;28;20237;-68
2023/10/03 11:38:22;;;;;;;20.47;5.60;;;;;;;25.36;45.71;99970.44;4197660;28;20312;-69